Parker, Idaho
Current Conditions -  °F | °C
As of 4:03 AM on Saturday 20 Dec 2014 (Local Time) from KRXE Reporting Station
Overcast Overcast  
Wind Chill: 25°   Ceiling: 1400
Heat Index: 33°   Visibility: 10mi
Dew Point: 32°   Wind: 10mph
Humidity: 96%   Direction: 220°SW
Pressure: 30.06"   Gusts: NA
Location:  43.96°N, 111.76°W
Report Text: KRXE 201103Z AUTO 22009KT 10SM FEW008 OVC014 01/00 A3006 RMK AO2 T00060000
Loading
Personal Weather Stations






























Interactive Weather Map New forecast layout! Learn more

10-Day Weather Forecast

Advertisements
Track Severe Weather on mobile